sensor_id;sensor_type;location;lat;lon;timestamp;P1;durP1;ratioP1;P2;durP2;ratioP2
73132;SDS011;61320;52.008;4.530;2022-12-07T00:02:21;3.46;;;3.39;;
73132;SDS011;61320;52.008;4.530;2022-12-07T00:04:48;3.16;;;3.05;;
73132;SDS011;61320;52.008;4.530;2022-12-07T00:07:14;2.94;;;2.81;;
73132;SDS011;61320;52.008;4.530;2022-12-07T00:09:42;2.85;;;2.72;;
73132;SDS011;61320;52.008;4.530;2022-12-07T00:12:08;2.79;;;2.68;;
73132;SDS011;61320;52.008;4.530;2022-12-07T00:14:33;2.77;;;2.69;;
73132;SDS011;61320;52.008;4.530;2022-12-07T00:16:59;3.08;;;2.96;;
73132;SDS011;61320;52.008;4.530;2022-12-07T00:19:24;2.87;;;2.79;;
73132;SDS011;61320;52.008;4.530;2022-12-07T00:21:50;2.85;;;2.78;;
73132;SDS011;61320;52.008;4.530;2022-12-07T00:24:16;2.85;;;2.79;;
73132;SDS011;61320;52.008;4.530;2022-12-07T00:26:42;3.29;;;3.14;;
73132;SDS011;61320;52.008;4.530;2022-12-07T00:29:16;3.11;;;2.93;;
73132;SDS011;61320;52.008;4.530;2022-12-07T00:31:43;3.41;;;3.28;;
73132;SDS011;61320;52.008;4.530;2022-12-07T00:34:16;3.27;;;3.12;;
73132;SDS011;61320;52.008;4.530;2022-12-07T00:36:44;3.40;;;3.26;;
73132;SDS011;61320;52.008;4.530;2022-12-07T01:23:36;2.91;;;2.79;;
73132;SDS011;61320;52.008;4.530;2022-12-07T01:26:04;2.83;;;2.72;;
73132;SDS011;61320;52.008;4.530;2022-12-07T01:28:32;2.65;;;2.56;;
73132;SDS011;61320;52.008;4.530;2022-12-07T01:31:02;2.62;;;2.53;;
73132;SDS011;61320;52.008;4.530;2022-12-07T01:33:32;2.64;;;2.53;;
73132;SDS011;61320;52.008;4.530;2022-12-07T01:36:01;2.55;;;2.43;;
73132;SDS011;61320;52.008;4.530;2022-12-07T01:38:27;2.67;;;2.57;;
73132;SDS011;61320;52.008;4.530;2022-12-07T01:40:54;2.34;;;2.24;;
73132;SDS011;61320;52.008;4.530;2022-12-07T01:43:20;2.58;;;2.43;;
73132;SDS011;61320;52.008;4.530;2022-12-07T01:45:50;2.57;;;2.44;;
73132;SDS011;61320;52.008;4.530;2022-12-07T01:48:17;2.31;;;2.21;;
73132;SDS011;61320;52.008;4.530;2022-12-07T01:50:50;2.39;;;2.29;;
73132;SDS011;61320;52.008;4.530;2022-12-07T02:39:00;1.71;;;1.54;;
73132;SDS011;61320;52.008;4.530;2022-12-07T02:41:35;1.68;;;1.53;;
73132;SDS011;61320;52.008;4.530;2022-12-07T02:44:09;1.66;;;1.52;;
73132;SDS011;61320;52.008;4.530;2022-12-07T02:46:40;1.39;;;1.25;;
73132;SDS011;61320;52.008;4.530;2022-12-07T02:49:12;1.35;;;1.22;;
73132;SDS011;61320;52.008;4.530;2022-12-07T02:51:41;1.35;;;1.23;;
73132;SDS011;61320;52.008;4.530;2022-12-07T03:24:55;1.73;;;1.38;;
73132;SDS011;61320;52.008;4.530;2022-12-07T03:27:29;1.26;;;1.03;;
73132;SDS011;61320;52.008;4.530;2022-12-07T03:30:00;1.37;;;1.13;;
73132;SDS011;61320;52.008;4.530;2022-12-07T03:37:52;1.33;;;1.10;;
73132;SDS011;61320;52.008;4.530;2022-12-07T03:54:15;1.70;;;1.34;;
73132;SDS011;61320;52.008;4.530;2022-12-07T03:56:48;1.74;;;1.35;;
73132;SDS011;61320;52.008;4.530;2022-12-07T03:59:16;1.83;;;1.41;;
73132;SDS011;61320;52.008;4.530;2022-12-07T04:01:44;1.66;;;1.27;;
73132;SDS011;61320;52.008;4.530;2022-12-07T04:04:17;1.90;;;1.43;;
73132;SDS011;61320;52.008;4.530;2022-12-07T04:06:42;1.97;;;1.47;;
73132;SDS011;61320;52.008;4.530;2022-12-07T04:09:08;1.77;;;1.33;;
73132;SDS011;61320;52.008;4.530;2022-12-07T04:11:33;1.52;;;1.15;;
73132;SDS011;61320;52.008;4.530;2022-12-07T04:13:59;1.37;;;1.03;;
73132;SDS011;61320;52.008;4.530;2022-12-07T04:16:47;1.57;;;1.19;;
73132;SDS011;61320;52.008;4.530;2022-12-07T04:19:15;1.37;;;1.05;;
73132;SDS011;61320;52.008;4.530;2022-12-07T04:21:42;1.39;;;1.07;;
73132;SDS011;61320;52.008;4.530;2022-12-07T04:24:08;1.51;;;1.15;;
73132;SDS011;61320;52.008;4.530;2022-12-07T04:26:34;1.78;;;1.36;;
73132;SDS011;61320;52.008;4.530;2022-12-07T04:29:00;1.92;;;1.45;;
73132;SDS011;61320;52.008;4.530;2022-12-07T04:31:26;1.78;;;1.33;;
73132;SDS011;61320;52.008;4.530;2022-12-07T04:33:51;1.73;;;1.29;;
73132;SDS011;61320;52.008;4.530;2022-12-07T04:36:17;1.97;;;1.47;;
73132;SDS011;61320;52.008;4.530;2022-12-07T04:38:44;1.97;;;1.50;;
73132;SDS011;61320;52.008;4.530;2022-12-07T04:41:10;2.38;;;1.80;;
73132;SDS011;61320;52.008;4.530;2022-12-07T04:43:36;2.32;;;1.75;;
73132;SDS011;61320;52.008;4.530;2022-12-07T04:46:01;2.19;;;1.64;;
73132;SDS011;61320;52.008;4.530;2022-12-07T04:48:27;1.76;;;1.31;;
73132;SDS011;61320;52.008;4.530;2022-12-07T04:50:53;1.68;;;1.22;;
73132;SDS011;61320;52.008;4.530;2022-12-07T04:53:18;1.76;;;1.28;;
73132;SDS011;61320;52.008;4.530;2022-12-07T04:55:44;2.03;;;1.46;;
73132;SDS011;61320;52.008;4.530;2022-12-07T04:58:10;1.68;;;1.19;;
73132;SDS011;61320;52.008;4.530;2022-12-07T05:00:37;2.03;;;1.43;;
73132;SDS011;61320;52.008;4.530;2022-12-07T05:03:03;2.52;;;1.76;;
73132;SDS011;61320;52.008;4.530;2022-12-07T05:05:28;2.80;;;1.97;;
73132;SDS011;61320;52.008;4.530;2022-12-07T05:07:54;2.39;;;1.71;;
73132;SDS011;61320;52.008;4.530;2022-12-07T05:41:12;2.06;;;1.64;;
73132;SDS011;61320;52.008;4.530;2022-12-07T05:43:59;2.10;;;1.71;;
73132;SDS011;61320;52.008;4.530;2022-12-07T05:46:25;2.46;;;2.05;;
73132;SDS011;61320;52.008;4.530;2022-12-07T05:48:51;2.28;;;1.95;;
73132;SDS011;61320;52.008;4.530;2022-12-07T05:51:16;2.20;;;1.94;;
73132;SDS011;61320;52.008;4.530;2022-12-07T05:53:42;2.21;;;1.96;;
73132;SDS011;61320;52.008;4.530;2022-12-07T06:13:08;2.06;;;1.91;;
73132;SDS011;61320;52.008;4.530;2022-12-07T06:15:37;2.31;;;2.15;;
73132;SDS011;61320;52.008;4.530;2022-12-07T06:18:03;2.01;;;1.87;;
73132;SDS011;61320;52.008;4.530;2022-12-07T06:20:28;1.97;;;1.84;;
73132;SDS011;61320;52.008;4.530;2022-12-07T06:22:54;2.36;;;2.17;;
73132;SDS011;61320;52.008;4.530;2022-12-07T06:25:19;2.52;;;2.33;;
73132;SDS011;61320;52.008;4.530;2022-12-07T06:41:26;4.16;;;3.97;;
73132;SDS011;61320;52.008;4.530;2022-12-07T06:43:51;14.87;;;14.80;;
73132;SDS011;61320;52.008;4.530;2022-12-07T06:46:17;15.64;;;15.54;;
73132;SDS011;61320;52.008;4.530;2022-12-07T06:48:43;13.42;;;13.32;;
73132;SDS011;61320;52.008;4.530;2022-12-07T06:51:11;12.82;;;12.62;;
73132;SDS011;61320;52.008;4.530;2022-12-07T06:53:39;10.04;;;9.95;;
73132;SDS011;61320;52.008;4.530;2022-12-07T06:56:07;6.44;;;6.40;;
73132;SDS011;61320;52.008;4.530;2022-12-07T06:58:33;3.66;;;3.61;;
73132;SDS011;61320;52.008;4.530;2022-12-07T07:00:59;2.45;;;2.37;;
73132;SDS011;61320;52.008;4.530;2022-12-07T07:03:24;2.54;;;2.41;;
73132;SDS011;61320;52.008;4.530;2022-12-07T07:05:50;2.43;;;2.29;;
73132;SDS011;61320;52.008;4.530;2022-12-07T07:08:15;2.36;;;2.13;;
73132;SDS011;61320;52.008;4.530;2022-12-07T07:10:41;2.57;;;2.30;;
73132;SDS011;61320;52.008;4.530;2022-12-07T07:13:07;2.37;;;2.11;;
73132;SDS011;61320;52.008;4.530;2022-12-07T07:15:34;2.59;;;2.27;;
73132;SDS011;61320;52.008;4.530;2022-12-07T07:18:00;2.18;;;1.91;;
73132;SDS011;61320;52.008;4.530;2022-12-07T07:20:26;2.35;;;2.05;;
73132;SDS011;61320;52.008;4.530;2022-12-07T07:22:55;2.33;;;2.02;;
73132;SDS011;61320;52.008;4.530;2022-12-07T07:25:22;2.52;;;2.21;;
73132;SDS011;61320;52.008;4.530;2022-12-07T07:27:47;2.55;;;2.29;;
73132;SDS011;61320;52.008;4.530;2022-12-07T07:30:13;2.95;;;2.69;;
73132;SDS011;61320;52.008;4.530;2022-12-07T07:32:38;2.98;;;2.79;;
73132;SDS011;61320;52.008;4.530;2022-12-07T07:35:04;3.47;;;3.28;;
73132;SDS011;61320;52.008;4.530;2022-12-07T07:37:30;3.34;;;3.16;;
73132;SDS011;61320;52.008;4.530;2022-12-07T07:39:55;3.46;;;3.30;;
73132;SDS011;61320;52.008;4.530;2022-12-07T07:59:15;7.94;;;7.46;;
73132;SDS011;61320;52.008;4.530;2022-12-07T08:01:41;7.13;;;6.76;;
73132;SDS011;61320;52.008;4.530;2022-12-07T08:04:06;6.96;;;6.70;;
73132;SDS011;61320;52.008;4.530;2022-12-07T08:06:32;6.68;;;6.43;;
73132;SDS011;61320;52.008;4.530;2022-12-07T08:08:58;5.84;;;5.59;;
73132;SDS011;61320;52.008;4.530;2022-12-07T08:11:24;5.87;;;5.56;;
73132;SDS011;61320;52.008;4.530;2022-12-07T08:13:50;5.51;;;5.25;;
73132;SDS011;61320;52.008;4.530;2022-12-07T08:16:16;5.31;;;5.03;;
73132;SDS011;61320;52.008;4.530;2022-12-07T08:18:42;4.66;;;4.47;;
73132;SDS011;61320;52.008;4.530;2022-12-07T08:21:09;4.71;;;4.47;;
73132;SDS011;61320;52.008;4.530;2022-12-07T08:23:38;4.50;;;4.35;;
73132;SDS011;61320;52.008;4.530;2022-12-07T08:26:04;4.21;;;4.03;;
73132;SDS011;61320;52.008;4.530;2022-12-07T08:31:54;3.59;;;3.42;;
73132;SDS011;61320;52.008;4.530;2022-12-07T08:34:39;4.21;;;4.01;;
73132;SDS011;61320;52.008;4.530;2022-12-07T08:43:36;3.77;;;3.61;;
73132;SDS011;61320;52.008;4.530;2022-12-07T08:46:13;3.96;;;3.81;;
73132;SDS011;61320;52.008;4.530;2022-12-07T08:48:49;4.37;;;4.25;;
73132;SDS011;61320;52.008;4.530;2022-12-07T08:51:31;4.29;;;4.21;;
73132;SDS011;61320;52.008;4.530;2022-12-07T08:53:59;4.10;;;4.03;;
73132;SDS011;61320;52.008;4.530;2022-12-07T08:56:30;4.55;;;4.50;;
73132;SDS011;61320;52.008;4.530;2022-12-07T09:29:26;3.20;;;3.12;;
73132;SDS011;61320;52.008;4.530;2022-12-07T09:31:52;3.17;;;3.07;;
73132;SDS011;61320;52.008;4.530;2022-12-07T09:34:18;2.92;;;2.77;;
73132;SDS011;61320;52.008;4.530;2022-12-07T09:36:44;2.75;;;2.61;;
73132;SDS011;61320;52.008;4.530;2022-12-07T09:39:10;2.38;;;2.25;;
73132;SDS011;61320;52.008;4.530;2022-12-07T09:41:40;1.90;;;1.80;;
73132;SDS011;61320;52.008;4.530;2022-12-07T09:44:10;1.84;;;1.77;;
73132;SDS011;61320;52.008;4.530;2022-12-07T09:46:39;1.85;;;1.78;;
73132;SDS011;61320;52.008;4.530;2022-12-07T09:49:16;1.76;;;1.68;;
73132;SDS011;61320;52.008;4.530;2022-12-07T09:51:47;1.74;;;1.68;;
73132;SDS011;61320;52.008;4.530;2022-12-07T09:54:24;1.60;;;1.55;;
73132;SDS011;61320;52.008;4.530;2022-12-07T09:56:50;1.84;;;1.78;;
73132;SDS011;61320;52.008;4.530;2022-12-07T09:59:18;1.97;;;1.92;;
73132;SDS011;61320;52.008;4.530;2022-12-07T10:01:45;1.97;;;1.91;;
73132;SDS011;61320;52.008;4.530;2022-12-07T10:04:14;2.27;;;2.20;;
73132;SDS011;61320;52.008;4.530;2022-12-07T10:06:47;2.99;;;2.96;;
73132;SDS011;61320;52.008;4.530;2022-12-07T10:09:16;3.51;;;3.50;;
73132;SDS011;61320;52.008;4.530;2022-12-07T10:12:00;3.39;;;3.37;;
